createdAt,value
2022-10-22T00:04:35.533Z,10.75
2022-10-22T00:14:49.433Z,10.65
2022-10-22T00:25:02.450Z,10.73
2022-10-22T00:35:15.438Z,10.65
2022-10-22T00:45:32.470Z,10.62
2022-10-22T00:55:52.457Z,10.59
2022-10-22T01:06:07.492Z,10.59
2022-10-22T01:16:27.457Z,10.36
2022-10-22T01:27:08.524Z,10.23
2022-10-22T01:37:22.493Z,10.03
2022-10-22T01:47:46.519Z,10.09
2022-10-22T01:58:18.506Z,9.97
2022-10-22T02:08:37.525Z,9.75
2022-10-22T02:18:53.509Z,9.69
2022-10-22T02:29:14.535Z,9.73
2022-10-22T02:39:27.527Z,9.70
2022-10-22T02:49:40.567Z,9.11
2022-10-22T02:59:53.534Z,8.84
2022-10-22T03:10:06.566Z,8.82
2022-10-22T03:20:19.546Z,9.06
2022-10-22T03:30:32.594Z,9.79
2022-10-22T03:40:45.582Z,10.24
2022-10-22T03:50:58.598Z,10.49
2022-10-22T04:01:19.646Z,10.48
2022-10-22T04:11:32.595Z,10.52
2022-10-22T04:21:45.600Z,10.75
2022-10-22T04:31:58.621Z,10.71
2022-10-22T04:42:11.613Z,10.51
2022-10-22T04:52:24.629Z,10.51
2022-10-22T05:02:37.618Z,10.59
2022-10-22T05:12:50.651Z,10.11
2022-10-22T05:23:03.625Z,9.81
2022-10-22T05:33:18.760Z,9.48
2022-10-22T05:43:34.643Z,9.54
2022-10-22T05:53:49.691Z,9.77
2022-10-22T06:04:07.656Z,10.03
2022-10-22T06:14:20.691Z,10.54
2022-10-22T06:24:33.702Z,11.08
2022-10-22T06:34:46.711Z,11.79
2022-10-22T06:44:59.694Z,11.47
2022-10-22T06:55:18.710Z,11.36
2022-10-22T07:05:31.710Z,11.65
2022-10-22T07:15:44.716Z,11.89
2022-10-22T07:25:57.730Z,11.98
2022-10-22T07:36:12.763Z,12.27
2022-10-22T07:46:32.739Z,12.47
2022-10-22T07:56:45.777Z,12.66
2022-10-22T08:06:58.747Z,12.89
2022-10-22T08:17:11.778Z,12.96
2022-10-22T08:27:24.783Z,13.34
2022-10-22T08:37:37.987Z,13.20
2022-10-22T08:48:08.829Z,13.18
2022-10-22T08:58:36.785Z,12.97
2022-10-22T09:08:51.846Z,12.89
2022-10-22T09:19:07.794Z,13.32
2022-10-22T09:29:25.813Z,13.62
2022-10-22T09:39:42.837Z,13.51
2022-10-22T09:49:55.810Z,13.69
2022-10-22T10:00:08.843Z,13.68
2022-10-22T10:10:28.842Z,13.72
2022-10-22T10:21:02.919Z,13.57
2022-10-22T10:31:19.863Z,13.59
2022-10-22T10:41:40.858Z,13.51
2022-10-22T10:52:00.874Z,13.35
2022-10-22T11:02:38.871Z,13.18
2022-10-22T11:12:53.910Z,13.25
2022-10-22T11:23:19.863Z,13.34
2022-10-22T11:33:37.921Z,13.24
2022-10-22T11:44:02.914Z,13.45
2022-10-22T11:54:49.927Z,13.38
2022-10-22T12:05:03.939Z,13.39
2022-10-22T12:15:31.953Z,13.32
2022-10-22T12:25:45.937Z,13.38
2022-10-22T12:36:01.946Z,13.26
2022-10-22T12:46:20.953Z,13.34
2022-10-22T12:56:36.949Z,13.13
2022-10-22T13:06:54.959Z,13.21
2022-10-22T13:17:11.977Z,13.34
2022-10-22T13:27:24.995Z,13.28
2022-10-22T13:37:45.974Z,12.98
2022-10-22T13:48:01.020Z,12.78
2022-10-22T13:58:22.020Z,12.57
2022-10-22T14:08:36.063Z,12.29
2022-10-22T14:18:49.037Z,12.34
2022-10-22T14:29:09.235Z,12.11
2022-10-22T14:39:22.044Z,12.12
2022-10-22T14:49:35.071Z,12.06
2022-10-22T14:59:55.057Z,11.97
2022-10-22T15:10:08.115Z,11.98
2022-10-22T15:20:21.173Z,11.97
2022-10-22T15:30:34.120Z,12.06
2022-10-22T15:40:48.173Z,12.01
2022-10-22T15:51:01.171Z,11.89
2022-10-22T16:01:21.255Z,11.85
2022-10-22T16:11:35.207Z,11.91
2022-10-22T16:21:48.220Z,11.88
2022-10-22T16:32:01.222Z,11.87
2022-10-22T16:42:14.245Z,11.87
2022-10-22T16:52:27.232Z,11.75
2022-10-22T17:02:40.516Z,11.74
2022-10-22T17:12:54.246Z,11.78
2022-10-22T17:23:07.290Z,11.68
2022-10-22T17:33:20.226Z,11.79
2022-10-22T17:43:33.181Z,11.80
2022-10-22T17:53:50.198Z,11.82
2022-10-22T18:04:06.173Z,11.86
2022-10-22T18:14:19.194Z,11.81
2022-10-22T18:24:32.210Z,11.97
2022-10-22T18:34:45.196Z,11.79
2022-10-22T18:44:58.200Z,11.82
2022-10-22T18:55:12.197Z,11.76
2022-10-22T19:05:25.227Z,11.81
2022-10-22T19:15:38.224Z,11.96
2022-10-22T19:25:51.253Z,12.11
2022-10-22T19:36:04.344Z,12.20
2022-10-22T19:46:17.269Z,12.27
2022-10-22T19:56:30.244Z,12.35
2022-10-22T20:06:43.259Z,12.45
2022-10-22T20:16:56.241Z,12.53
2022-10-22T20:27:09.310Z,12.64
2022-10-22T20:37:22.282Z,12.55
2022-10-22T20:47:51.196Z,12.32
2022-10-22T20:58:11.299Z,12.31
2022-10-22T21:08:25.296Z,12.40
2022-10-22T21:18:38.298Z,12.38
2022-10-22T21:28:51.346Z,12.40
2022-10-22T21:39:04.324Z,12.53
2022-10-22T21:49:17.339Z,12.52
2022-10-22T21:59:39.349Z,12.51
2022-10-22T22:09:52.334Z,12.53
2022-10-22T22:20:05.349Z,12.52
2022-10-22T22:30:18.350Z,12.56
2022-10-22T22:40:33.760Z,12.52
2022-10-22T22:50:46.358Z,12.15
2022-10-22T23:01:04.423Z,12.17
2022-10-22T23:11:20.370Z,12.25
2022-10-22T23:21:35.401Z,12.26
2022-10-22T23:31:48.382Z,12.30
2022-10-22T23:42:01.426Z,12.30
2022-10-22T23:52:14.414Z,12.24
